createdAt,value
2017-03-29T00:00:24.930Z,14.35
2017-03-29T00:01:05.436Z,14.39
2017-03-29T00:01:45.970Z,14.33
2017-03-29T00:02:26.503Z,14.35
2017-03-29T00:03:07.027Z,14.25
2017-03-29T00:03:47.533Z,14.2
2017-03-29T00:04:28.057Z,14.25
2017-03-29T00:05:08.571Z,14.24
2017-03-29T00:05:49.094Z,14.18
2017-03-29T00:06:29.601Z,14.2
2017-03-29T00:07:10.106Z,14.24
2017-03-29T00:07:50.618Z,14.2
2017-03-29T00:08:31.130Z,14.24
2017-03-29T00:09:11.668Z,14.21
2017-03-29T00:09:52.176Z,14.22
2017-03-29T00:10:32.679Z,14.22
2017-03-29T00:11:13.209Z,14.21
2017-03-29T00:11:53.763Z,14.07
2017-03-29T00:12:34.248Z,14.21
2017-03-29T00:13:14.793Z,14.24
2017-03-29T00:13:55.315Z,14.21
2017-03-29T00:14:35.818Z,14.2
2017-03-29T00:15:16.355Z,14.21
2017-03-29T00:15:56.867Z,14.2
2017-03-29T00:16:37.360Z,14.21
2017-03-29T00:17:17.866Z,14.17
2017-03-29T00:17:58.383Z,14.14
2017-03-29T00:18:38.899Z,14.24
2017-03-29T00:19:19.425Z,14.15
2017-03-29T00:19:59.944Z,14.17
2017-03-29T00:20:40.454Z,14.07
2017-03-29T00:21:20.960Z,14.03
2017-03-29T00:22:01.458Z,14.07
2017-03-29T00:22:41.975Z,14.03
2017-03-29T00:23:22.496Z,14.04
2017-03-29T00:24:03.007Z,13.89
2017-03-29T00:24:43.540Z,13.88
2017-03-29T00:25:24.058Z,13.92
2017-03-29T00:26:04.572Z,13.87
2017-03-29T00:26:45.090Z,13.81
2017-03-29T00:27:25.590Z,13.7
2017-03-29T00:28:06.113Z,13.67
2017-03-29T00:28:46.654Z,13.63
2017-03-29T00:29:27.172Z,13.59
2017-03-29T00:30:07.677Z,13.62
2017-03-29T00:30:48.206Z,13.59
2017-03-29T00:31:28.727Z,13.59
2017-03-29T00:32:09.252Z,13.57
2017-03-29T00:32:49.767Z,13.57
2017-03-29T00:33:30.291Z,13.48
2017-03-29T00:34:10.817Z,13.46
2017-03-29T00:34:51.345Z,13.45
2017-03-29T00:35:31.893Z,13.44
2017-03-29T00:36:12.384Z,13.39
2017-03-29T00:36:52.904Z,13.33
2017-03-29T00:37:33.410Z,13.28
2017-03-29T00:38:13.910Z,13.29
2017-03-29T00:38:54.425Z,13.23
2017-03-29T00:39:34.943Z,13.2
2017-03-29T00:40:15.457Z,13.23
2017-03-29T00:40:55.991Z,13.15
2017-03-29T00:41:36.506Z,13.11
2017-03-29T00:42:17.022Z,13.12
2017-03-29T00:42:57.547Z,13
2017-03-29T00:43:38.067Z,13.04
2017-03-29T00:44:18.603Z,13.03
2017-03-29T00:44:59.120Z,13.01
2017-03-29T00:45:39.639Z,13.03
2017-03-29T00:46:20.162Z,12.96
2017-03-29T00:47:00.673Z,13
2017-03-29T00:47:41.168Z,13.03
2017-03-29T00:48:21.686Z,12.97
2017-03-29T00:49:02.203Z,12.87
2017-03-29T00:49:42.721Z,12.9
2017-03-29T00:50:23.253Z,12.77
2017-03-29T00:51:03.768Z,12.9
2017-03-29T00:51:44.328Z,12.83
2017-03-29T00:52:24.767Z,12.83
2017-03-29T00:53:05.291Z,12.78
2017-03-29T00:53:45.777Z,12.78
2017-03-29T00:54:26.275Z,12.78
2017-03-29T00:55:06.795Z,12.79
2017-03-29T00:55:47.290Z,12.64
2017-03-29T00:56:27.814Z,12.68
2017-03-29T00:57:08.354Z,12.72
2017-03-29T00:57:48.866Z,12.71
2017-03-29T00:58:29.379Z,12.71
2017-03-29T00:59:09.903Z,12.65
2017-03-29T00:59:50.417Z,12.68
2017-03-29T01:00:30.925Z,12.68
2017-03-29T01:01:11.448Z,12.67
2017-03-29T01:01:51.958Z,12.65
2017-03-29T01:02:32.470Z,12.62
2017-03-29T01:03:12.992Z,12.53
2017-03-29T01:03:53.492Z,12.54
2017-03-29T01:04:33.995Z,12.54
2017-03-29T01:05:14.503Z,12.5
2017-03-29T01:05:55.029Z,12.47
2017-03-29T01:06:35.538Z,12.45
2017-03-29T01:07:16.069Z,12.42
2017-03-29T01:07:56.615Z,12.37
2017-03-29T01:08:37.130Z,12.34
2017-03-29T01:09:17.638Z,12.35
2017-03-29T01:09:58.158Z,12.31
2017-03-29T01:10:38.670Z,12.32
2017-03-29T01:11:19.250Z,12.35
2017-03-29T01:11:59.746Z,12.31
2017-03-29T01:12:40.273Z,12.28
2017-03-29T01:13:20.768Z,12.27
2017-03-29T01:14:01.272Z,12.23
2017-03-29T01:14:41.796Z,12.31
2017-03-29T01:15:22.320Z,12.27
2017-03-29T01:16:02.845Z,12.17
2017-03-29T01:16:43.368Z,12.13
2017-03-29T01:17:23.872Z,12.17
2017-03-29T01:18:04.371Z,12.17
2017-03-29T01:18:44.887Z,12.16
2017-03-29T01:19:25.423Z,12.01
2017-03-29T01:20:05.949Z,12.14
2017-03-29T01:20:46.473Z,12.13
2017-03-29T01:21:26.990Z,12.09
2017-03-29T01:22:07.499Z,12.01
2017-03-29T01:22:48.022Z,12.07
2017-03-29T01:23:28.565Z,12.05
2017-03-29T01:24:09.055Z,11.96
2017-03-29T01:24:49.577Z,11.9
2017-03-29T01:25:30.077Z,11.99
2017-03-29T01:26:10.600Z,11.94
2017-03-29T01:26:51.124Z,11.94
2017-03-29T01:27:31.628Z,11.86
2017-03-29T01:28:12.140Z,11.98
2017-03-29T01:28:52.654Z,11.9
2017-03-29T01:29:33.177Z,11.94
2017-03-29T01:30:15.432Z,11.91
2017-03-29T01:30:55.957Z,11.88
2017-03-29T01:31:36.443Z,11.86
2017-03-29T01:32:16.961Z,11.91
2017-03-29T01:32:57.479Z,11.88
2017-03-29T01:33:37.997Z,11.91
2017-03-29T01:34:18.506Z,11.88
2017-03-29T01:34:59.043Z,11.79
2017-03-29T01:35:39.557Z,11.78
2017-03-29T01:36:20.062Z,11.8
2017-03-29T01:37:00.579Z,11.72
2017-03-29T01:37:41.097Z,11.75
2017-03-29T01:38:21.620Z,11.79
2017-03-29T01:39:02.141Z,11.75
2017-03-29T01:39:42.665Z,11.82
2017-03-29T01:40:23.165Z,11.82
2017-03-29T01:41:03.688Z,11.79
2017-03-29T01:41:44.222Z,11.76
2017-03-29T01:42:24.759Z,11.78
2017-03-29T01:43:05.246Z,11.78
2017-03-29T01:43:45.766Z,11.78
2017-03-29T01:44:26.284Z,11.79
2017-03-29T01:45:06.813Z,11.72
2017-03-29T01:45:47.333Z,11.78
2017-03-29T01:46:27.840Z,11.73
2017-03-29T01:47:08.357Z,11.76
2017-03-29T01:47:48.879Z,11.76
2017-03-29T01:48:29.385Z,11.8
2017-03-29T01:49:09.902Z,11.73
2017-03-29T01:49:50.418Z,11.8
2017-03-29T01:50:30.934Z,11.82
2017-03-29T01:51:11.439Z,11.75
2017-03-29T01:51:51.960Z,11.83
2017-03-29T01:52:32.477Z,11.82
2017-03-29T01:53:13.005Z,11.85
2017-03-29T01:53:53.513Z,11.86
2017-03-29T01:54:34.024Z,11.76
2017-03-29T01:55:14.562Z,11.78
2017-03-29T01:55:55.067Z,11.76
2017-03-29T01:56:35.591Z,11.72
2017-03-29T01:57:16.120Z,11.72
2017-03-29T01:57:56.627Z,11.75
2017-03-29T01:58:37.152Z,11.73
2017-03-29T01:59:17.668Z,11.76
2017-03-29T01:59:58.189Z,11.79
2017-03-29T02:00:38.690Z,11.83
2017-03-29T02:01:19.205Z,11.78
2017-03-29T02:01:59.706Z,11.8
2017-03-29T02:02:40.228Z,11.7
2017-03-29T02:03:20.740Z,11.7
2017-03-29T02:04:01.251Z,11.73
2017-03-29T02:04:41.769Z,11.72
2017-03-29T02:05:22.298Z,11.75
2017-03-29T02:06:02.816Z,11.76
2017-03-29T02:06:43.315Z,11.7
2017-03-29T02:07:23.836Z,11.75
2017-03-29T02:08:04.334Z,11.65
2017-03-29T02:08:44.862Z,11.6
2017-03-29T02:09:25.389Z,11.65
2017-03-29T02:10:05.891Z,11.64
2017-03-29T02:10:46.396Z,11.51
2017-03-29T02:11:26.904Z,11.52
2017-03-29T02:12:07.432Z,11.54
2017-03-29T02:12:47.968Z,11.61
2017-03-29T02:13:28.495Z,11.55
2017-03-29T02:14:09.009Z,11.61
2017-03-29T02:14:49.530Z,11.51
2017-03-29T02:15:30.042Z,11.52
2017-03-29T02:16:10.540Z,11.55
2017-03-29T02:16:51.058Z,11.6
2017-03-29T02:17:31.586Z,11.52
2017-03-29T02:18:12.099Z,11.46
2017-03-29T02:18:52.632Z,11.6
2017-03-29T02:19:33.180Z,11.52
2017-03-29T02:20:13.724Z,11.58
2017-03-29T02:20:54.257Z,11.51
2017-03-29T02:21:34.762Z,11.54
2017-03-29T02:22:15.288Z,11.51
2017-03-29T02:22:55.789Z,11.55
2017-03-29T02:23:36.314Z,11.55
2017-03-29T02:24:16.838Z,11.55
2017-03-29T02:24:57.361Z,11.55
2017-03-29T02:25:37.879Z,11.47
2017-03-29T02:26:18.386Z,11.54
2017-03-29T02:26:58.923Z,11.58
2017-03-29T02:27:39.419Z,11.51
2017-03-29T02:28:19.932Z,11.49
2017-03-29T02:29:00.452Z,11.47
2017-03-29T02:29:40.966Z,11.61
2017-03-29T02:30:21.473Z,11.52
2017-03-29T02:31:01.990Z,11.52
2017-03-29T02:31:42.499Z,11.58
2017-03-29T02:32:22.999Z,11.52
2017-03-29T02:33:03.504Z,11.65
2017-03-29T02:33:44.055Z,11.52
2017-03-29T02:34:24.569Z,11.55
2017-03-29T02:35:05.095Z,11.57
2017-03-29T02:35:45.622Z,11.47
2017-03-29T02:36:26.127Z,11.49
2017-03-29T02:37:06.644Z,11.52
2017-03-29T02:37:47.167Z,11.54
2017-03-29T02:38:27.667Z,11.49
2017-03-29T02:39:08.197Z,11.42
2017-03-29T02:39:48.685Z,11.36
2017-03-29T02:40:29.204Z,11.42
2017-03-29T02:41:09.708Z,11.42
2017-03-29T02:41:50.224Z,11.42
2017-03-29T02:42:30.743Z,11.36
2017-03-29T02:43:11.265Z,11.42
2017-03-29T02:43:51.784Z,11.43
2017-03-29T02:44:32.306Z,11.4
2017-03-29T02:45:12.826Z,11.43
2017-03-29T02:45:53.329Z,11.43
2017-03-29T02:46:33.850Z,11.43
2017-03-29T02:47:14.369Z,11.39
2017-03-29T02:47:54.904Z,11.37
2017-03-29T02:48:35.433Z,11.44
2017-03-29T02:49:15.951Z,11.36
2017-03-29T02:49:56.560Z,11.36
2017-03-29T02:50:37.068Z,11.28
2017-03-29T02:51:17.590Z,11.28
2017-03-29T02:51:58.093Z,11.27
2017-03-29T02:52:38.605Z,11.22
2017-03-29T02:53:19.115Z,11.27
2017-03-29T02:53:59.632Z,11.18
2017-03-29T02:54:40.150Z,11.17
2017-03-29T02:55:20.676Z,11.25
2017-03-29T02:56:01.178Z,11.25
2017-03-29T02:56:41.713Z,11.19
2017-03-29T02:57:22.228Z,11.21
2017-03-29T02:58:02.728Z,11.18
2017-03-29T02:58:43.264Z,11.11
2017-03-29T02:59:23.771Z,11.02
2017-03-29T03:00:04.272Z,11.04
2017-03-29T03:00:44.778Z,10.99
2017-03-29T03:01:25.296Z,11.03
2017-03-29T03:02:05.810Z,11.02
2017-03-29T03:02:46.336Z,10.94
2017-03-29T03:03:26.867Z,10.97
2017-03-29T03:04:07.376Z,10.92
2017-03-29T03:04:47.895Z,10.88
2017-03-29T03:05:28.414Z,10.88
2017-03-29T03:06:08.936Z,10.85
2017-03-29T03:06:49.452Z,10.81
2017-03-29T03:07:29.967Z,10.91
2017-03-29T03:08:10.471Z,10.84
2017-03-29T03:08:50.985Z,10.76
2017-03-29T03:09:31.529Z,10.73
2017-03-29T03:10:12.052Z,10.78
2017-03-29T03:10:52.567Z,10.78
2017-03-29T03:11:33.084Z,10.71
2017-03-29T03:12:13.587Z,10.67
2017-03-29T03:12:54.098Z,10.79
2017-03-29T03:13:34.605Z,10.64
2017-03-29T03:14:15.101Z,10.68
2017-03-29T03:14:55.598Z,10.61
2017-03-29T03:15:36.075Z,10.61
2017-03-29T03:16:16.589Z,10.48
2017-03-29T03:16:57.119Z,10.59
2017-03-29T03:17:37.679Z,10.45
2017-03-29T03:18:18.160Z,10.45
2017-03-29T03:18:58.676Z,10.36
2017-03-29T03:19:39.188Z,10.44
2017-03-29T03:20:19.697Z,10.42
2017-03-29T03:21:00.591Z,10.4
2017-03-29T03:21:41.147Z,10.42
2017-03-29T03:22:21.662Z,10.34
2017-03-29T03:23:02.194Z,10.38
2017-03-29T03:23:42.735Z,10.32
2017-03-29T03:24:23.248Z,10.27
2017-03-29T03:25:03.791Z,10.27
2017-03-29T03:25:44.346Z,10.33
2017-03-29T03:26:24.984Z,10.32
2017-03-29T03:27:05.536Z,10.27
2017-03-29T03:27:46.178Z,10.29
2017-03-29T03:28:26.670Z,10.26
2017-03-29T03:29:07.200Z,10.23
2017-03-29T03:29:47.717Z,10.26
2017-03-29T03:30:28.270Z,10.23
2017-03-29T03:31:08.846Z,10.2
2017-03-29T03:31:49.344Z,10.25
2017-03-29T03:32:29.829Z,10.18
2017-03-29T03:33:10.364Z,10.23
2017-03-29T03:33:50.936Z,10.18
2017-03-29T03:34:31.499Z,10.08
2017-03-29T03:35:12.065Z,10.09
2017-03-29T03:35:52.599Z,10.09
2017-03-29T03:36:33.133Z,10.08
2017-03-29T03:37:13.643Z,10.05
2017-03-29T03:37:54.141Z,9.99
2017-03-29T03:38:34.769Z,10.08
2017-03-29T03:39:15.340Z,10.01
2017-03-29T03:39:55.847Z,10.08
2017-03-29T03:40:36.396Z,10.04
2017-03-29T03:41:16.886Z,10.04
2017-03-29T03:41:57.417Z,10.07
2017-03-29T03:42:38.074Z,10.15
2017-03-29T03:43:18.611Z,10.09
2017-03-29T03:43:59.256Z,10.08
2017-03-29T03:44:39.817Z,10.07
2017-03-29T03:45:20.444Z,10.02
2017-03-29T03:46:01.106Z,10.02
2017-03-29T03:46:41.703Z,10.11
2017-03-29T03:47:22.184Z,10.05
2017-03-29T03:48:02.877Z,10.05
2017-03-29T03:48:43.502Z,10.08
2017-03-29T03:49:24.092Z,10.04
2017-03-29T03:50:05.289Z,10.11
2017-03-29T03:50:45.831Z,10.04
2017-03-29T03:51:26.329Z,10.07
2017-03-29T03:52:06.875Z,10.02
2017-03-29T03:52:47.452Z,10.05
2017-03-29T03:53:27.956Z,10.04
2017-03-29T03:54:08.493Z,10.02
2017-03-29T03:54:48.996Z,10.11
2017-03-29T03:55:29.519Z,10.05
2017-03-29T03:56:10.089Z,10.09
2017-03-29T03:56:50.621Z,10.02
2017-03-29T03:57:31.150Z,10.05
2017-03-29T03:58:11.647Z,10.14
2017-03-29T03:58:52.191Z,10.08
2017-03-29T03:59:32.755Z,10.14
2017-03-29T04:00:13.352Z,10.09
2017-03-29T04:00:53.946Z,10.12
2017-03-29T04:01:34.492Z,10.11
2017-03-29T04:02:15.065Z,10.07
2017-03-29T04:02:55.619Z,10.09
2017-03-29T04:03:36.327Z,10.12
2017-03-29T04:04:16.840Z,10.09
2017-03-29T04:04:57.397Z,10.08
2017-03-29T04:05:38.021Z,10.08
2017-03-29T04:06:18.667Z,10.09
2017-03-29T04:06:59.199Z,10.11
2017-03-29T04:07:39.911Z,10.04
2017-03-29T04:08:20.484Z,10.15
2017-03-29T04:09:01.071Z,10.12
2017-03-29T04:09:41.718Z,10.14
2017-03-29T04:10:22.199Z,10.15
2017-03-29T04:11:02.728Z,10.17
2017-03-29T04:11:44.072Z,10.17
2017-03-29T04:12:24.629Z,10.15
2017-03-29T04:13:05.159Z,10.15
2017-03-29T04:13:45.644Z,10.17
2017-03-29T04:14:26.236Z,10.15
2017-03-29T04:15:06.861Z,10.14
2017-03-29T04:15:47.439Z,10.11
2017-03-29T04:16:27.932Z,10.14
2017-03-29T04:17:08.462Z,10.12
2017-03-29T04:17:48.992Z,10.07
2017-03-29T04:18:29.505Z,10.09
2017-03-29T04:19:10.036Z,10.04
2017-03-29T04:19:50.550Z,10.08
2017-03-29T04:20:31.067Z,10.11
2017-03-29T04:21:11.567Z,10.08
2017-03-29T04:21:52.067Z,10.04
2017-03-29T04:22:32.582Z,10.01
2017-03-29T04:23:13.095Z,10.01
2017-03-29T04:23:53.614Z,10.04
2017-03-29T04:24:34.143Z,10.04
2017-03-29T04:25:14.651Z,10.05
2017-03-29T04:25:55.195Z,10.04
2017-03-29T04:26:35.712Z,10.02
2017-03-29T04:27:16.232Z,9.99
2017-03-29T04:27:56.743Z,10.01
2017-03-29T04:28:37.259Z,10.05
2017-03-29T04:29:17.738Z,10.02
2017-03-29T04:29:58.228Z,10.02
2017-03-29T04:30:38.750Z,9.91
2017-03-29T04:31:19.256Z,10.04
2017-03-29T04:31:59.760Z,10.02
2017-03-29T04:32:40.256Z,9.99
2017-03-29T04:33:20.783Z,10.07
2017-03-29T04:34:01.323Z,10.01
2017-03-29T04:34:41.857Z,10.04
2017-03-29T04:35:22.370Z,10.05
2017-03-29T04:36:02.864Z,10.02
2017-03-29T04:36:43.409Z,10.04
2017-03-29T04:37:23.929Z,10.05
2017-03-29T04:38:04.438Z,10.04
2017-03-29T04:38:44.979Z,10.04
2017-03-29T04:39:25.497Z,10.05
2017-03-29T04:40:06.026Z,10.04
2017-03-29T04:40:46.542Z,10.02
2017-03-29T04:41:27.079Z,10.02
2017-03-29T04:42:07.603Z,10.05
2017-03-29T04:42:48.121Z,10.05
2017-03-29T04:43:28.636Z,10.05
2017-03-29T04:44:09.159Z,10.07
2017-03-29T04:44:49.668Z,10.04
2017-03-29T04:45:30.180Z,10.01
2017-03-29T04:46:10.710Z,10.05
2017-03-29T04:46:51.231Z,9.99
2017-03-29T04:47:31.755Z,9.96
2017-03-29T04:48:12.286Z,9.9
2017-03-29T04:48:52.784Z,10.04
2017-03-29T04:49:33.323Z,9.99
2017-03-29T04:50:13.819Z,9.91
2017-03-29T04:50:54.315Z,9.91
2017-03-29T04:51:34.830Z,9.87
2017-03-29T04:52:15.362Z,9.86
2017-03-29T04:52:55.885Z,9.9
2017-03-29T04:53:36.408Z,9.99
2017-03-29T04:54:16.909Z,10.02
2017-03-29T04:54:57.412Z,10.02
2017-03-29T04:55:37.930Z,10.15
2017-03-29T04:56:18.428Z,10.02
2017-03-29T04:56:58.925Z,10.09
2017-03-29T04:57:39.453Z,10.05
2017-03-29T04:58:19.962Z,10.12
2017-03-29T04:59:00.491Z,9.99
2017-03-29T04:59:40.990Z,10.07
2017-03-29T05:00:21.501Z,10.12
2017-03-29T05:01:02.031Z,10.07
2017-03-29T05:01:42.561Z,10.08
2017-03-29T05:02:23.075Z,10.04
2017-03-29T05:03:03.595Z,9.99
2017-03-29T05:03:44.113Z,9.97
2017-03-29T05:04:24.662Z,9.96
2017-03-29T05:05:05.194Z,9.99
2017-03-29T05:05:45.709Z,9.97
2017-03-29T05:06:26.214Z,9.93
2017-03-29T05:07:06.719Z,9.87
2017-03-29T05:07:47.245Z,9.94
2017-03-29T05:08:27.763Z,9.89
2017-03-29T05:09:08.299Z,9.91
2017-03-29T05:09:48.816Z,9.9
2017-03-29T05:10:29.336Z,9.91
2017-03-29T05:11:09.866Z,9.9
2017-03-29T05:11:50.380Z,10.04
2017-03-29T05:12:30.890Z,9.97
2017-03-29T05:13:11.401Z,10.01
2017-03-29T05:13:51.931Z,9.89
2017-03-29T05:14:32.435Z,10.05
2017-03-29T05:15:12.945Z,9.96
2017-03-29T05:15:53.457Z,10.05
2017-03-29T05:16:33.952Z,9.96
2017-03-29T05:17:14.475Z,9.99
2017-03-29T05:17:54.967Z,9.93
2017-03-29T05:18:35.476Z,9.94
2017-03-29T05:19:15.991Z,9.93
2017-03-29T05:19:56.515Z,9.93
2017-03-29T05:20:37.042Z,10.02
2017-03-29T05:21:17.551Z,10.01
2017-03-29T05:21:58.072Z,9.91
2017-03-29T05:22:38.614Z,9.87
2017-03-29T05:23:19.121Z,9.97
2017-03-29T05:23:59.645Z,9.94
2017-03-29T05:24:40.157Z,10.04
2017-03-29T05:25:20.669Z,10.07
2017-03-29T05:26:01.176Z,10.05
2017-03-29T05:26:41.730Z,10.07
2017-03-29T05:27:22.223Z,10.08
2017-03-29T05:28:02.764Z,10.01
2017-03-29T05:28:43.287Z,10.08
2017-03-29T05:29:23.822Z,10.04
2017-03-29T05:30:04.821Z,10.09
2017-03-29T05:30:45.696Z,10.11
2017-03-29T05:31:26.433Z,10.07
2017-03-29T05:32:07.419Z,10.09
2017-03-29T05:32:48.067Z,10.08
2017-03-29T05:33:28.954Z,10.05
2017-03-29T05:34:09.623Z,10.15
2017-03-29T05:34:50.781Z,10.15
2017-03-29T05:35:31.808Z,10.18
2017-03-29T05:36:12.683Z,10.14
2017-03-29T05:36:53.766Z,10.2
2017-03-29T05:37:34.721Z,10.17
2017-03-29T05:38:15.703Z,10.18
2017-03-29T05:38:56.613Z,10.07
2017-03-29T05:39:37.488Z,10.2
2017-03-29T05:40:18.482Z,10.17
2017-03-29T05:40:59.345Z,10.15
2017-03-29T05:41:40.187Z,10.17
2017-03-29T05:42:20.956Z,10.12
2017-03-29T05:43:01.913Z,10.15
2017-03-29T05:43:42.822Z,10.14
2017-03-29T05:44:23.619Z,10.14
2017-03-29T05:45:04.450Z,10.12
2017-03-29T05:45:45.354Z,10.15
2017-03-29T05:46:26.259Z,10.12
2017-03-29T05:47:07.287Z,10.17
2017-03-29T05:47:47.656Z,10.15
2017-03-29T05:48:28.187Z,10.14
2017-03-29T05:49:08.710Z,10.22
2017-03-29T05:49:49.197Z,10.2
2017-03-29T05:50:29.855Z,10.18
2017-03-29T05:51:10.609Z,10.2
2017-03-29T05:51:51.136Z,10.2
2017-03-29T05:52:31.666Z,10.23
2017-03-29T05:53:12.225Z,10.23
2017-03-29T05:53:52.770Z,10.23
2017-03-29T05:54:33.272Z,10.25
2017-03-29T05:55:13.937Z,10.3
2017-03-29T05:55:54.717Z,10.29
2017-03-29T05:56:35.219Z,10.3
2017-03-29T05:57:15.731Z,10.29
2017-03-29T05:57:56.345Z,10.27
2017-03-29T05:58:37.106Z,10.3
2017-03-29T05:59:17.612Z,10.36
2017-03-29T05:59:58.113Z,10.32
2017-03-29T06:00:38.622Z,10.33
2017-03-29T06:01:19.132Z,10.32
2017-03-29T06:01:59.715Z,10.3
2017-03-29T06:02:40.181Z,10.29
2017-03-29T06:03:20.693Z,10.33
2017-03-29T06:04:01.201Z,10.33
2017-03-29T06:04:41.745Z,10.29
2017-03-29T06:05:22.255Z,10.34
2017-03-29T06:06:02.759Z,10.3
2017-03-29T06:06:43.266Z,10.32
2017-03-29T06:07:23.773Z,10.4
2017-03-29T06:08:04.271Z,10.38
2017-03-29T06:08:44.776Z,10.34
2017-03-29T06:09:25.311Z,10.34
2017-03-29T06:10:05.876Z,10.38
2017-03-29T06:10:46.435Z,10.32
2017-03-29T06:11:26.958Z,10.42
2017-03-29T06:12:07.497Z,10.33
2017-03-29T06:12:47.973Z,10.41
2017-03-29T06:13:28.506Z,10.38
2017-03-29T06:14:09.015Z,10.42
2017-03-29T06:14:49.536Z,10.42
2017-03-29T06:15:30.036Z,10.45
2017-03-29T06:16:10.558Z,10.4
2017-03-29T06:16:51.086Z,10.41
2017-03-29T06:17:31.595Z,10.52
2017-03-29T06:18:12.108Z,10.52
2017-03-29T06:18:52.640Z,10.44
2017-03-29T06:19:33.170Z,10.51
2017-03-29T06:20:13.674Z,10.56
2017-03-29T06:20:54.206Z,10.48
2017-03-29T06:21:34.726Z,10.48
2017-03-29T06:22:15.239Z,10.48
2017-03-29T06:22:55.754Z,10.64
2017-03-29T06:23:36.250Z,10.6
2017-03-29T06:24:16.756Z,10.61
2017-03-29T06:24:57.282Z,10.63
2017-03-29T06:25:37.793Z,10.68
2017-03-29T06:26:18.320Z,10.61
2017-03-29T06:26:58.826Z,10.67
2017-03-29T06:27:39.335Z,10.6
2017-03-29T06:28:19.857Z,10.68
2017-03-29T06:29:00.377Z,10.68
2017-03-29T06:29:40.889Z,10.76
2017-03-29T06:30:21.410Z,10.73
2017-03-29T06:31:02.132Z,10.74
2017-03-29T06:31:42.665Z,10.76
2017-03-29T06:32:23.164Z,10.76
2017-03-29T06:33:03.677Z,10.74
2017-03-29T06:33:44.189Z,10.84
2017-03-29T06:34:24.764Z,10.78
2017-03-29T06:35:05.280Z,10.82
2017-03-29T06:35:45.776Z,10.86
2017-03-29T06:36:26.296Z,10.88
2017-03-29T06:37:06.809Z,10.88
2017-03-29T06:37:47.322Z,10.86
2017-03-29T06:38:27.832Z,10.84
2017-03-29T06:39:08.349Z,10.85
2017-03-29T06:39:48.855Z,10.92
2017-03-29T06:40:29.397Z,10.96
2017-03-29T06:41:09.870Z,11.03
2017-03-29T06:41:50.410Z,10.96
2017-03-29T06:42:30.895Z,11.03
2017-03-29T06:43:11.511Z,10.99
2017-03-29T06:43:52.023Z,11.03
2017-03-29T06:44:32.534Z,11.03
2017-03-29T06:45:13.075Z,11.09
2017-03-29T06:45:53.822Z,11.14
2017-03-29T06:46:34.464Z,11.09
2017-03-29T06:47:15.109Z,11.18
2017-03-29T06:47:55.739Z,11.18
2017-03-29T06:48:36.294Z,11.24
2017-03-29T06:49:16.783Z,11.21
2017-03-29T06:49:57.284Z,11.21
2017-03-29T06:50:37.840Z,11.22
2017-03-29T06:51:18.369Z,11.19
2017-03-29T06:51:58.924Z,11.28
2017-03-29T06:52:39.426Z,11.35
2017-03-29T06:53:20.018Z,11.39
2017-03-29T06:54:00.684Z,11.28
2017-03-29T06:54:41.194Z,11.36
2017-03-29T06:55:21.706Z,11.39
2017-03-29T06:56:02.191Z,11.32
2017-03-29T06:56:42.705Z,11.32
2017-03-29T06:57:23.243Z,11.36
2017-03-29T06:58:03.740Z,11.44
2017-03-29T06:58:44.247Z,11.43
2017-03-29T06:59:24.774Z,11.36
2017-03-29T07:00:05.303Z,11.47
2017-03-29T07:00:45.834Z,11.51
2017-03-29T07:01:26.351Z,11.62
2017-03-29T07:02:06.871Z,11.54
2017-03-29T07:02:47.414Z,11.54
2017-03-29T07:03:27.944Z,11.64
2017-03-29T07:04:08.513Z,11.7
2017-03-29T07:04:49.047Z,11.67
2017-03-29T07:05:29.575Z,11.73
2017-03-29T07:06:10.071Z,11.69
2017-03-29T07:06:50.560Z,11.69
2017-03-29T07:07:31.091Z,11.76
2017-03-29T07:08:11.615Z,11.73
2017-03-29T07:08:52.135Z,11.8
2017-03-29T07:09:32.673Z,11.86
2017-03-29T07:10:13.176Z,11.91
2017-03-29T07:10:53.701Z,11.86
2017-03-29T07:11:34.215Z,11.91
2017-03-29T07:12:14.726Z,11.95
2017-03-29T07:12:55.241Z,11.95
2017-03-29T07:13:35.748Z,11.91
2017-03-29T07:14:16.263Z,12.05
2017-03-29T07:14:56.804Z,12.01
2017-03-29T07:15:37.320Z,12.05
2017-03-29T07:16:17.847Z,12.07
2017-03-29T07:16:58.374Z,12.07
2017-03-29T07:17:38.886Z,11.99
2017-03-29T07:18:19.381Z,12.02
2017-03-29T07:18:59.913Z,12.17
2017-03-29T07:19:40.427Z,12.14
2017-03-29T07:20:20.954Z,12.13
2017-03-29T07:21:01.467Z,12.27
2017-03-29T07:21:41.989Z,12.23
2017-03-29T07:22:22.511Z,12.28
2017-03-29T07:23:03.018Z,12.31
2017-03-29T07:23:43.540Z,12.37
2017-03-29T07:24:24.051Z,12.37
2017-03-29T07:25:04.563Z,12.39
2017-03-29T07:25:45.070Z,12.45
2017-03-29T07:26:25.606Z,12.45
2017-03-29T07:27:06.122Z,12.47
2017-03-29T07:27:46.642Z,12.49
2017-03-29T07:28:27.155Z,12.52
2017-03-29T07:29:07.670Z,12.5
2017-03-29T07:29:48.181Z,12.6
2017-03-29T07:30:28.685Z,12.65
2017-03-29T07:31:09.226Z,12.6
2017-03-29T07:31:49.771Z,12.68
2017-03-29T07:32:30.312Z,12.71
2017-03-29T07:33:10.839Z,12.71
2017-03-29T07:33:51.366Z,12.77
2017-03-29T07:34:31.900Z,12.82
2017-03-29T07:35:12.421Z,12.86
2017-03-29T07:35:52.957Z,12.82
2017-03-29T07:36:33.484Z,12.85
2017-03-29T07:37:13.999Z,12.89
2017-03-29T07:37:54.495Z,12.93
2017-03-29T07:38:35.001Z,12.92
2017-03-29T07:39:15.525Z,13
2017-03-29T07:39:56.033Z,13.07
2017-03-29T07:40:36.556Z,13.12
2017-03-29T07:41:17.075Z,13.14
2017-03-29T07:41:57.584Z,13.15
2017-03-29T07:42:38.107Z,13.26
2017-03-29T07:43:18.610Z,13.26
2017-03-29T07:43:59.128Z,13.32
2017-03-29T07:44:39.659Z,13.42
2017-03-29T07:45:20.165Z,13.52
2017-03-29T07:46:00.686Z,13.6
2017-03-29T07:46:41.198Z,13.66
2017-03-29T07:47:21.723Z,13.79
2017-03-29T07:48:02.233Z,13.82
2017-03-29T07:48:42.766Z,13.88
2017-03-29T07:49:23.295Z,14
2017-03-29T07:50:03.808Z,14.04
2017-03-29T07:50:44.318Z,14.07
2017-03-29T07:51:24.854Z,14.21
2017-03-29T07:52:05.375Z,14.22
2017-03-29T07:52:45.889Z,14.21
2017-03-29T07:53:26.405Z,14.37
2017-03-29T07:54:06.916Z,14.32
2017-03-29T07:54:47.446Z,14.36
2017-03-29T07:55:27.963Z,14.42
2017-03-29T07:56:08.485Z,14.42
2017-03-29T07:56:49.024Z,14.43
2017-03-29T07:57:29.546Z,14.5
2017-03-29T07:58:10.067Z,14.54
2017-03-29T07:58:50.583Z,14.55
2017-03-29T07:59:31.106Z,14.6
2017-03-29T08:00:11.622Z,14.52
2017-03-29T08:00:52.172Z,14.52
2017-03-29T08:01:32.689Z,14.65
2017-03-29T08:02:13.223Z,14.69
2017-03-29T08:02:53.732Z,14.62
2017-03-29T08:03:34.263Z,14.69
2017-03-29T08:04:14.772Z,14.75
2017-03-29T08:04:55.269Z,14.72
2017-03-29T08:05:35.785Z,14.72
2017-03-29T08:06:16.302Z,14.78
2017-03-29T08:06:56.837Z,14.69
2017-03-29T08:07:37.350Z,14.81
2017-03-29T08:08:17.843Z,14.78
2017-03-29T08:08:58.353Z,14.78
2017-03-29T08:09:38.882Z,14.84
2017-03-29T08:10:19.417Z,14.86
2017-03-29T08:10:59.929Z,14.86
2017-03-29T08:11:40.454Z,14.88
2017-03-29T08:12:20.973Z,14.84
2017-03-29T08:13:01.479Z,14.95
2017-03-29T08:13:42.003Z,14.96
2017-03-29T08:14:22.530Z,14.99
2017-03-29T08:15:03.055Z,14.96
2017-03-29T08:15:43.578Z,14.96
2017-03-29T08:16:24.106Z,14.91
2017-03-29T08:17:04.626Z,15.03
2017-03-29T08:17:45.151Z,15.07
2017-03-29T08:18:25.674Z,14.99
2017-03-29T08:19:06.193Z,15.07
2017-03-29T08:19:46.711Z,15.03
2017-03-29T08:20:27.242Z,15.13
2017-03-29T08:21:07.758Z,15.16
2017-03-29T08:21:48.268Z,15.2
2017-03-29T08:22:28.802Z,15.27
2017-03-29T08:23:09.296Z,15.36
2017-03-29T08:23:49.854Z,15.41
2017-03-29T08:24:30.339Z,15.5
2017-03-29T08:25:10.860Z,15.62
2017-03-29T08:25:51.373Z,15.56
2017-03-29T08:26:31.884Z,15.65
2017-03-29T08:27:12.386Z,15.72
2017-03-29T08:27:52.921Z,15.75
2017-03-29T08:28:33.456Z,15.76
2017-03-29T08:29:13.975Z,15.75
2017-03-29T08:29:54.506Z,15.89
2017-03-29T08:30:35.038Z,15.84
2017-03-29T08:31:15.574Z,15.82
2017-03-29T08:31:56.105Z,15.82
2017-03-29T08:32:36.626Z,15.86
2017-03-29T08:33:17.157Z,15.82
2017-03-29T08:33:57.689Z,15.8
2017-03-29T08:34:38.202Z,15.82
2017-03-29T08:35:18.729Z,15.75
2017-03-29T08:35:59.243Z,15.76
2017-03-29T08:36:39.767Z,15.76
2017-03-29T08:37:20.284Z,15.78
2017-03-29T08:38:00.798Z,15.78
2017-03-29T08:38:41.325Z,15.72
2017-03-29T08:39:21.870Z,15.64
2017-03-29T08:40:02.374Z,15.57
2017-03-29T08:40:42.914Z,15.69
2017-03-29T08:41:23.431Z,15.72
2017-03-29T08:42:03.941Z,15.71
2017-03-29T08:42:44.466Z,15.78
2017-03-29T08:43:25.013Z,15.78
2017-03-29T08:44:05.530Z,15.93
2017-03-29T08:44:46.047Z,16.01